sensor_id;sensor_type;location;lat;lon;timestamp;temperature;humidity
52895;DHT22;38759;53.396;6.722;2023-07-29T00:01:35;17.70;99.90
52895;DHT22;38759;53.396;6.722;2023-07-29T00:04:02;17.80;99.90
52895;DHT22;38759;53.396;6.722;2023-07-29T00:06:27;17.80;99.90
52895;DHT22;38759;53.396;6.722;2023-07-29T00:08:53;17.80;99.90
52895;DHT22;38759;53.396;6.722;2023-07-29T00:11:19;17.80;99.90
52895;DHT22;38759;53.396;6.722;2023-07-29T00:13:45;17.80;99.90
52895;DHT22;38759;53.396;6.722;2023-07-29T00:16:10;17.90;99.90
52895;DHT22;38759;53.396;6.722;2023-07-29T00:18:36;17.90;99.90
52895;DHT22;38759;53.396;6.722;2023-07-29T00:21:02;17.90;99.90
52895;DHT22;38759;53.396;6.722;2023-07-29T00:23:28;17.90;99.90
52895;DHT22;38759;53.396;6.722;2023-07-29T00:25:54;17.90;99.90
52895;DHT22;38759;53.396;6.722;2023-07-29T00:28:20;17.90;99.90
52895;DHT22;38759;53.396;6.722;2023-07-29T00:30:45;17.90;99.90
52895;DHT22;38759;53.396;6.722;2023-07-29T00:33:11;18.00;99.90
52895;DHT22;38759;53.396;6.722;2023-07-29T00:35:36;17.90;99.90
52895;DHT22;38759;53.396;6.722;2023-07-29T00:38:02;18.00;99.90
52895;DHT22;38759;53.396;6.722;2023-07-29T00:40:28;17.90;99.90
52895;DHT22;38759;53.396;6.722;2023-07-29T00:42:54;17.90;99.90
52895;DHT22;38759;53.396;6.722;2023-07-29T00:45:20;18.00;99.90
52895;DHT22;38759;53.396;6.722;2023-07-29T00:47:46;17.90;99.90
52895;DHT22;38759;53.396;6.722;2023-07-29T00:50:13;17.90;99.90
52895;DHT22;38759;53.396;6.722;2023-07-29T00:52:40;18.00;99.90
52895;DHT22;38759;53.396;6.722;2023-07-29T00:55:06;17.90;99.90
52895;DHT22;38759;53.396;6.722;2023-07-29T00:57:33;18.00;99.90
52895;DHT22;38759;53.396;6.722;2023-07-29T01:00:00;18.00;99.90
52895;DHT22;38759;53.396;6.722;2023-07-29T01:02:26;18.00;99.90
52895;DHT22;38759;53.396;6.722;2023-07-29T01:04:58;18.00;99.90
52895;DHT22;38759;53.396;6.722;2023-07-29T01:07:51;17.90;99.90
52895;DHT22;38759;53.396;6.722;2023-07-29T01:16:29;17.90;99.90
52895;DHT22;38759;53.396;6.722;2023-07-29T01:18:57;17.90;99.90
52895;DHT22;38759;53.396;6.722;2023-07-29T01:21:27;17.90;99.90
52895;DHT22;38759;53.396;6.722;2023-07-29T01:23:53;17.90;99.90
52895;DHT22;38759;53.396;6.722;2023-07-29T01:26:19;18.00;99.90
52895;DHT22;38759;53.396;6.722;2023-07-29T01:28:44;17.90;99.90
52895;DHT22;38759;53.396;6.722;2023-07-29T01:33:42;17.90;99.90
52895;DHT22;38759;53.396;6.722;2023-07-29T01:36:18;17.90;99.90
52895;DHT22;38759;53.396;6.722;2023-07-29T01:38:44;17.90;99.90
52895;DHT22;38759;53.396;6.722;2023-07-29T01:41:11;17.90;99.90
52895;DHT22;38759;53.396;6.722;2023-07-29T01:43:37;17.90;99.90
52895;DHT22;38759;53.396;6.722;2023-07-29T01:46:10;17.90;99.90
52895;DHT22;38759;53.396;6.722;2023-07-29T01:48:39;17.90;99.90
52895;DHT22;38759;53.396;6.722;2023-07-29T01:51:06;17.90;99.90
52895;DHT22;38759;53.396;6.722;2023-07-29T01:53:32;17.90;99.90
52895;DHT22;38759;53.396;6.722;2023-07-29T01:55:58;17.90;99.90
52895;DHT22;38759;53.396;6.722;2023-07-29T01:58:24;17.90;99.90
52895;DHT22;38759;53.396;6.722;2023-07-29T02:00:50;17.90;99.90
52895;DHT22;38759;53.396;6.722;2023-07-29T02:03:16;17.90;99.90
52895;DHT22;38759;53.396;6.722;2023-07-29T02:05:42;17.80;99.90
52895;DHT22;38759;53.396;6.722;2023-07-29T02:08:09;17.80;99.90
52895;DHT22;38759;53.396;6.722;2023-07-29T02:10:35;17.80;99.90
52895;DHT22;38759;53.396;6.722;2023-07-29T02:13:01;17.80;99.90
52895;DHT22;38759;53.396;6.722;2023-07-29T02:15:27;17.80;99.90
52895;DHT22;38759;53.396;6.722;2023-07-29T02:17:53;17.80;99.90
52895;DHT22;38759;53.396;6.722;2023-07-29T02:20:19;17.80;99.90
52895;DHT22;38759;53.396;6.722;2023-07-29T02:22:45;17.70;99.90
52895;DHT22;38759;53.396;6.722;2023-07-29T02:25:11;17.70;99.90
52895;DHT22;38759;53.396;6.722;2023-07-29T02:27:36;17.70;99.90
52895;DHT22;38759;53.396;6.722;2023-07-29T02:30:02;17.70;99.90
52895;DHT22;38759;53.396;6.722;2023-07-29T02:32:28;17.70;99.90
52895;DHT22;38759;53.396;6.722;2023-07-29T02:34:54;17.60;99.90
52895;DHT22;38759;53.396;6.722;2023-07-29T02:37:20;17.60;99.90
52895;DHT22;38759;53.396;6.722;2023-07-29T02:39:46;17.60;99.90
52895;DHT22;38759;53.396;6.722;2023-07-29T02:42:12;17.60;99.90
52895;DHT22;38759;53.396;6.722;2023-07-29T02:44:38;17.50;99.90
52895;DHT22;38759;53.396;6.722;2023-07-29T02:47:04;17.50;99.90
52895;DHT22;38759;53.396;6.722;2023-07-29T02:49:30;17.50;99.90
52895;DHT22;38759;53.396;6.722;2023-07-29T02:51:55;17.40;99.90
52895;DHT22;38759;53.396;6.722;2023-07-29T02:54:21;17.40;99.90
52895;DHT22;38759;53.396;6.722;2023-07-29T02:56:47;17.40;99.90
52895;DHT22;38759;53.396;6.722;2023-07-29T02:59:12;17.30;99.90
52895;DHT22;38759;53.396;6.722;2023-07-29T03:01:38;17.30;99.90
52895;DHT22;38759;53.396;6.722;2023-07-29T03:04:04;17.30;99.90
52895;DHT22;38759;53.396;6.722;2023-07-29T03:06:29;17.20;99.90
52895;DHT22;38759;53.396;6.722;2023-07-29T03:08:55;17.20;99.90
52895;DHT22;38759;53.396;6.722;2023-07-29T03:11:21;17.10;99.90
52895;DHT22;38759;53.396;6.722;2023-07-29T03:13:46;17.10;99.90
52895;DHT22;38759;53.396;6.722;2023-07-29T03:16:14;17.10;99.90
52895;DHT22;38759;53.396;6.722;2023-07-29T03:18:40;17.10;99.90
52895;DHT22;38759;53.396;6.722;2023-07-29T03:21:07;17.10;99.90
52895;DHT22;38759;53.396;6.722;2023-07-29T03:23:33;17.10;99.90
52895;DHT22;38759;53.396;6.722;2023-07-29T03:26:00;17.10;99.90
52895;DHT22;38759;53.396;6.722;2023-07-29T03:28:28;17.10;99.90
52895;DHT22;38759;53.396;6.722;2023-07-29T03:30:57;17.00;99.90
52895;DHT22;38759;53.396;6.722;2023-07-29T03:33:24;17.00;99.90
52895;DHT22;38759;53.396;6.722;2023-07-29T03:35:50;17.00;99.90
52895;DHT22;38759;53.396;6.722;2023-07-29T03:38:16;16.90;99.90
52895;DHT22;38759;53.396;6.722;2023-07-29T03:40:42;16.90;99.90
52895;DHT22;38759;53.396;6.722;2023-07-29T03:43:08;16.90;99.90
52895;DHT22;38759;53.396;6.722;2023-07-29T03:45:34;16.80;99.90
52895;DHT22;38759;53.396;6.722;2023-07-29T03:48:01;16.80;99.90
52895;DHT22;38759;53.396;6.722;2023-07-29T03:50:27;16.80;99.90
52895;DHT22;38759;53.396;6.722;2023-07-29T03:52:53;16.70;99.90
52895;DHT22;38759;53.396;6.722;2023-07-29T03:55:18;16.70;99.90
52895;DHT22;38759;53.396;6.722;2023-07-29T03:57:44;16.70;99.90
52895;DHT22;38759;53.396;6.722;2023-07-29T04:00:10;16.60;99.90
52895;DHT22;38759;53.396;6.722;2023-07-29T04:02:36;16.60;99.90
52895;DHT22;38759;53.396;6.722;2023-07-29T04:05:05;16.60;99.90
52895;DHT22;38759;53.396;6.722;2023-07-29T04:07:34;16.60;99.90
52895;DHT22;38759;53.396;6.722;2023-07-29T04:10:00;16.50;99.90
52895;DHT22;38759;53.396;6.722;2023-07-29T04:12:27;16.50;99.90
52895;DHT22;38759;53.396;6.722;2023-07-29T04:14:52;16.50;99.90
52895;DHT22;38759;53.396;6.722;2023-07-29T04:17:18;16.50;99.90
52895;DHT22;38759;53.396;6.722;2023-07-29T04:19:44;16.50;99.90
52895;DHT22;38759;53.396;6.722;2023-07-29T04:22:10;16.50;99.90
52895;DHT22;38759;53.396;6.722;2023-07-29T04:24:35;16.50;99.90
52895;DHT22;38759;53.396;6.722;2023-07-29T04:27:01;16.40;99.90
52895;DHT22;38759;53.396;6.722;2023-07-29T04:29:27;16.40;99.90
52895;DHT22;38759;53.396;6.722;2023-07-29T04:31:53;16.40;99.90
52895;DHT22;38759;53.396;6.722;2023-07-29T04:34:19;16.40;99.90
52895;DHT22;38759;53.396;6.722;2023-07-29T04:36:48;16.50;99.90
52895;DHT22;38759;53.396;6.722;2023-07-29T04:39:14;16.50;99.90
52895;DHT22;38759;53.396;6.722;2023-07-29T04:41:40;16.50;99.90
52895;DHT22;38759;53.396;6.722;2023-07-29T04:44:06;16.40;99.90
52895;DHT22;38759;53.396;6.722;2023-07-29T04:46:33;16.50;99.90
52895;DHT22;38759;53.396;6.722;2023-07-29T04:48:58;16.50;99.90
52895;DHT22;38759;53.396;6.722;2023-07-29T04:51:24;16.50;99.90
52895;DHT22;38759;53.396;6.722;2023-07-29T04:53:50;16.50;99.90
52895;DHT22;38759;53.396;6.722;2023-07-29T04:56:16;16.60;99.90
52895;DHT22;38759;53.396;6.722;2023-07-29T04:58:42;16.60;99.90
52895;DHT22;38759;53.396;6.722;2023-07-29T05:01:07;16.60;99.90
52895;DHT22;38759;53.396;6.722;2023-07-29T05:03:33;16.60;99.90
52895;DHT22;38759;53.396;6.722;2023-07-29T05:05:59;16.60;99.90
52895;DHT22;38759;53.396;6.722;2023-07-29T05:08:28;16.70;99.90
52895;DHT22;38759;53.396;6.722;2023-07-29T05:10:54;16.70;99.90
52895;DHT22;38759;53.396;6.722;2023-07-29T05:13:21;16.80;99.90
52895;DHT22;38759;53.396;6.722;2023-07-29T05:15:48;16.80;99.90
52895;DHT22;38759;53.396;6.722;2023-07-29T05:18:15;16.80;99.90
52895;DHT22;38759;53.396;6.722;2023-07-29T05:20:41;16.80;99.90
52895;DHT22;38759;53.396;6.722;2023-07-29T05:23:06;16.90;99.90
52895;DHT22;38759;53.396;6.722;2023-07-29T05:25:32;16.90;99.90
52895;DHT22;38759;53.396;6.722;2023-07-29T05:28:03;17.00;99.90
52895;DHT22;38759;53.396;6.722;2023-07-29T05:30:30;17.00;99.90
52895;DHT22;38759;53.396;6.722;2023-07-29T05:33:03;17.00;99.90
52895;DHT22;38759;53.396;6.722;2023-07-29T05:35:29;17.00;99.90
52895;DHT22;38759;53.396;6.722;2023-07-29T05:37:55;17.00;99.90
52895;DHT22;38759;53.396;6.722;2023-07-29T05:40:21;17.10;99.90
52895;DHT22;38759;53.396;6.722;2023-07-29T05:42:46;17.10;99.90
52895;DHT22;38759;53.396;6.722;2023-07-29T05:45:13;17.10;99.90
52895;DHT22;38759;53.396;6.722;2023-07-29T05:47:39;17.10;99.90
52895;DHT22;38759;53.396;6.722;2023-07-29T05:50:05;17.10;99.90
52895;DHT22;38759;53.396;6.722;2023-07-29T05:52:34;17.10;99.90
52895;DHT22;38759;53.396;6.722;2023-07-29T05:55:00;17.10;99.90
52895;DHT22;38759;53.396;6.722;2023-07-29T05:57:26;17.20;99.90
52895;DHT22;38759;53.396;6.722;2023-07-29T05:59:52;17.20;99.90
52895;DHT22;38759;53.396;6.722;2023-07-29T06:02:17;17.20;99.90
52895;DHT22;38759;53.396;6.722;2023-07-29T06:04:43;17.20;99.90
52895;DHT22;38759;53.396;6.722;2023-07-29T06:07:09;17.20;99.90
52895;DHT22;38759;53.396;6.722;2023-07-29T06:09:34;17.20;99.90
52895;DHT22;38759;53.396;6.722;2023-07-29T06:12:00;17.20;99.90
52895;DHT22;38759;53.396;6.722;2023-07-29T06:14:26;17.30;99.90
52895;DHT22;38759;53.396;6.722;2023-07-29T06:16:51;17.20;99.90
52895;DHT22;38759;53.396;6.722;2023-07-29T06:19:19;17.30;99.90
52895;DHT22;38759;53.396;6.722;2023-07-29T06:21:45;17.30;99.90
52895;DHT22;38759;53.396;6.722;2023-07-29T06:24:11;17.30;99.90
52895;DHT22;38759;53.396;6.722;2023-07-29T06:26:37;17.30;99.90
52895;DHT22;38759;53.396;6.722;2023-07-29T06:29:02;17.30;99.90
52895;DHT22;38759;53.396;6.722;2023-07-29T06:31:28;17.40;99.90
52895;DHT22;38759;53.396;6.722;2023-07-29T06:33:55;17.40;99.90
52895;DHT22;38759;53.396;6.722;2023-07-29T06:36:20;17.40;99.90
52895;DHT22;38759;53.396;6.722;2023-07-29T06:38:46;17.40;99.90
52895;DHT22;38759;53.396;6.722;2023-07-29T06:41:12;17.40;99.90
52895;DHT22;38759;53.396;6.722;2023-07-29T06:43:37;17.50;99.90
52895;DHT22;38759;53.396;6.722;2023-07-29T06:46:03;17.50;99.90
52895;DHT22;38759;53.396;6.722;2023-07-29T06:48:29;17.60;99.90
52895;DHT22;38759;53.396;6.722;2023-07-29T06:50:54;17.60;99.90
52895;DHT22;38759;53.396;6.722;2023-07-29T06:53:20;17.70;99.90
52895;DHT22;38759;53.396;6.722;2023-07-29T06:55:46;17.80;99.90
52895;DHT22;38759;53.396;6.722;2023-07-29T06:58:12;17.90;99.90
52895;DHT22;38759;53.396;6.722;2023-07-29T07:00:38;18.00;99.90
52895;DHT22;38759;53.396;6.722;2023-07-29T07:03:04;18.10;99.90
52895;DHT22;38759;53.396;6.722;2023-07-29T07:05:29;18.10;99.90
52895;DHT22;38759;53.396;6.722;2023-07-29T07:07:55;18.20;99.90
52895;DHT22;38759;53.396;6.722;2023-07-29T07:10:21;18.20;99.90
52895;DHT22;38759;53.396;6.722;2023-07-29T07:12:46;18.20;99.90
52895;DHT22;38759;53.396;6.722;2023-07-29T07:15:12;18.30;99.90
52895;DHT22;38759;53.396;6.722;2023-07-29T07:17:38;18.30;99.90
52895;DHT22;38759;53.396;6.722;2023-07-29T07:20:04;18.40;99.90
52895;DHT22;38759;53.396;6.722;2023-07-29T07:22:30;18.40;99.90
52895;DHT22;38759;53.396;6.722;2023-07-29T07:24:56;18.50;99.90
52895;DHT22;38759;53.396;6.722;2023-07-29T07:27:21;18.50;99.90
52895;DHT22;38759;53.396;6.722;2023-07-29T07:29:47;18.60;99.90
52895;DHT22;38759;53.396;6.722;2023-07-29T07:32:13;18.70;99.90
52895;DHT22;38759;53.396;6.722;2023-07-29T07:34:38;18.80;99.90
52895;DHT22;38759;53.396;6.722;2023-07-29T07:37:04;18.80;99.90
52895;DHT22;38759;53.396;6.722;2023-07-29T07:39:31;18.80;99.90
52895;DHT22;38759;53.396;6.722;2023-07-29T07:41:57;18.80;99.90
52895;DHT22;38759;53.396;6.722;2023-07-29T07:44:23;18.70;99.90
52895;DHT22;38759;53.396;6.722;2023-07-29T07:46:52;18.80;99.90
52895;DHT22;38759;53.396;6.722;2023-07-29T07:49:18;18.80;99.90
52895;DHT22;38759;53.396;6.722;2023-07-29T07:51:44;18.80;99.90
52895;DHT22;38759;53.396;6.722;2023-07-29T07:54:10;18.90;99.90
52895;DHT22;38759;53.396;6.722;2023-07-29T07:56:35;18.80;99.90
52895;DHT22;38759;53.396;6.722;2023-07-29T07:59:01;18.80;99.90
52895;DHT22;38759;53.396;6.722;2023-07-29T08:01:26;18.90;99.90
52895;DHT22;38759;53.396;6.722;2023-07-29T08:03:52;18.90;99.90
52895;DHT22;38759;53.396;6.722;2023-07-29T08:06:18;19.00;99.90
52895;DHT22;38759;53.396;6.722;2023-07-29T08:08:43;19.00;99.90
52895;DHT22;38759;53.396;6.722;2023-07-29T08:11:09;19.10;99.90
52895;DHT22;38759;53.396;6.722;2023-07-29T08:13:35;19.20;99.90
52895;DHT22;38759;53.396;6.722;2023-07-29T08:16:00;19.20;99.90
52895;DHT22;38759;53.396;6.722;2023-07-29T08:18:26;19.20;99.90
52895;DHT22;38759;53.396;6.722;2023-07-29T08:20:53;19.20;99.90
52895;DHT22;38759;53.396;6.722;2023-07-29T08:23:20;19.30;99.90
52895;DHT22;38759;53.396;6.722;2023-07-29T08:25:52;19.20;99.90
52895;DHT22;38759;53.396;6.722;2023-07-29T08:28:17;19.20;99.90
52895;DHT22;38759;53.396;6.722;2023-07-29T08:30:43;19.30;99.90
52895;DHT22;38759;53.396;6.722;2023-07-29T08:33:09;19.30;99.90
52895;DHT22;38759;53.396;6.722;2023-07-29T08:35:34;19.40;99.90
52895;DHT22;38759;53.396;6.722;2023-07-29T08:38:00;19.50;99.90
52895;DHT22;38759;53.396;6.722;2023-07-29T08:40:28;19.60;99.90
52895;DHT22;38759;53.396;6.722;2023-07-29T08:42:56;19.60;99.90
52895;DHT22;38759;53.396;6.722;2023-07-29T08:45:24;19.70;99.90
52895;DHT22;38759;53.396;6.722;2023-07-29T08:47:54;19.80;99.90
52895;DHT22;38759;53.396;6.722;2023-07-29T08:50:24;20.00;99.90
52895;DHT22;38759;53.396;6.722;2023-07-29T08:52:51;20.10;99.90
52895;DHT22;38759;53.396;6.722;2023-07-29T08:55:18;20.20;99.90
52895;DHT22;38759;53.396;6.722;2023-07-29T08:57:44;20.30;99.90
52895;DHT22;38759;53.396;6.722;2023-07-29T09:00:11;20.30;99.90
52895;DHT22;38759;53.396;6.722;2023-07-29T09:02:37;20.30;99.90
52895;DHT22;38759;53.396;6.722;2023-07-29T09:05:03;20.30;99.90
52895;DHT22;38759;53.396;6.722;2023-07-29T09:07:29;20.40;99.90
52895;DHT22;38759;53.396;6.722;2023-07-29T09:09:55;20.60;99.90
52895;DHT22;38759;53.396;6.722;2023-07-29T09:12:20;20.50;99.90
52895;DHT22;38759;53.396;6.722;2023-07-29T09:14:46;20.50;99.90
52895;DHT22;38759;53.396;6.722;2023-07-29T09:17:12;20.60;99.90
52895;DHT22;38759;53.396;6.722;2023-07-29T09:19:39;20.60;99.90
52895;DHT22;38759;53.396;6.722;2023-07-29T09:22:05;20.70;99.90
52895;DHT22;38759;53.396;6.722;2023-07-29T09:24:42;20.70;99.90
52895;DHT22;38759;53.396;6.722;2023-07-29T09:27:07;20.80;99.90
52895;DHT22;38759;53.396;6.722;2023-07-29T09:29:35;20.80;99.90
52895;DHT22;38759;53.396;6.722;2023-07-29T09:32:21;20.80;99.90
52895;DHT22;38759;53.396;6.722;2023-07-29T09:34:47;20.80;99.90
52895;DHT22;38759;53.396;6.722;2023-07-29T09:37:18;20.80;99.90
52895;DHT22;38759;53.396;6.722;2023-07-29T09:39:46;20.90;99.90
52895;DHT22;38759;53.396;6.722;2023-07-29T09:42:18;21.00;99.90
52895;DHT22;38759;53.396;6.722;2023-07-29T09:44:44;21.10;99.90
52895;DHT22;38759;53.396;6.722;2023-07-29T09:47:09;21.30;99.90
52895;DHT22;38759;53.396;6.722;2023-07-29T09:49:35;21.30;99.90
52895;DHT22;38759;53.396;6.722;2023-07-29T09:52:04;21.20;99.90
52895;DHT22;38759;53.396;6.722;2023-07-29T09:54:30;21.10;99.90
52895;DHT22;38759;53.396;6.722;2023-07-29T09:56:56;21.20;99.90
52895;DHT22;38759;53.396;6.722;2023-07-29T09:59:24;21.30;99.90
52895;DHT22;38759;53.396;6.722;2023-07-29T10:01:50;21.50;99.90
52895;DHT22;38759;53.396;6.722;2023-07-29T10:04:17;21.60;99.90
52895;DHT22;38759;53.396;6.722;2023-07-29T10:06:43;21.80;99.90
52895;DHT22;38759;53.396;6.722;2023-07-29T10:09:11;21.90;99.90
52895;DHT22;38759;53.396;6.722;2023-07-29T10:11:37;22.00;99.90
52895;DHT22;38759;53.396;6.722;2023-07-29T10:14:03;22.00;99.90
52895;DHT22;38759;53.396;6.722;2023-07-29T10:16:29;22.00;99.90
52895;DHT22;38759;53.396;6.722;2023-07-29T10:18:56;22.00;99.90
52895;DHT22;38759;53.396;6.722;2023-07-29T10:21:22;22.10;99.90
52895;DHT22;38759;53.396;6.722;2023-07-29T10:23:50;22.20;99.90
52895;DHT22;38759;53.396;6.722;2023-07-29T10:26:19;22.30;99.90
52895;DHT22;38759;53.396;6.722;2023-07-29T10:28:47;22.30;99.90
52895;DHT22;38759;53.396;6.722;2023-07-29T10:31:15;22.30;99.90
52895;DHT22;38759;53.396;6.722;2023-07-29T10:33:42;22.30;99.90
52895;DHT22;38759;53.396;6.722;2023-07-29T10:36:08;22.40;99.90
52895;DHT22;38759;53.396;6.722;2023-07-29T10:38:34;22.60;99.90
52895;DHT22;38759;53.396;6.722;2023-07-29T10:41:00;22.70;99.90
52895;DHT22;38759;53.396;6.722;2023-07-29T10:43:31;22.70;99.90
52895;DHT22;38759;53.396;6.722;2023-07-29T10:45:59;22.70;99.90
52895;DHT22;38759;53.396;6.722;2023-07-29T10:48:41;22.70;99.90
52895;DHT22;38759;53.396;6.722;2023-07-29T10:51:24;22.80;99.90
52895;DHT22;38759;53.396;6.722;2023-07-29T10:54:12;22.70;99.90
52895;DHT22;38759;53.396;6.722;2023-07-29T10:56:41;22.70;99.90
52895;DHT22;38759;53.396;6.722;2023-07-29T11:01:50;22.80;99.90
52895;DHT22;38759;53.396;6.722;2023-07-29T11:12:48;23.40;99.90
52895;DHT22;38759;53.396;6.722;2023-07-29T11:15:22;23.40;99.90
52895;DHT22;38759;53.396;6.722;2023-07-29T11:18:08;23.40;99.90
52895;DHT22;38759;53.396;6.722;2023-07-29T11:20:35;23.30;99.90
52895;DHT22;38759;53.396;6.722;2023-07-29T11:23:02;23.20;99.90
52895;DHT22;38759;53.396;6.722;2023-07-29T11:25:30;23.00;99.90
52895;DHT22;38759;53.396;6.722;2023-07-29T11:27:57;22.70;99.90
52895;DHT22;38759;53.396;6.722;2023-07-29T11:30:23;22.40;99.90
52895;DHT22;38759;53.396;6.722;2023-07-29T11:32:53;22.20;99.90
52895;DHT22;38759;53.396;6.722;2023-07-29T11:35:19;22.00;99.90
52895;DHT22;38759;53.396;6.722;2023-07-29T11:37:49;21.90;99.90
52895;DHT22;38759;53.396;6.722;2023-07-29T11:40:16;21.70;99.90
52895;DHT22;38759;53.396;6.722;2023-07-29T11:42:42;21.50;99.90
52895;DHT22;38759;53.396;6.722;2023-07-29T11:45:08;21.40;99.90
52895;DHT22;38759;53.396;6.722;2023-07-29T11:47:35;21.30;99.90
52895;DHT22;38759;53.396;6.722;2023-07-29T11:50:03;21.20;99.90
52895;DHT22;38759;53.396;6.722;2023-07-29T11:52:32;21.10;99.90
52895;DHT22;38759;53.396;6.722;2023-07-29T11:54:58;20.80;99.90
52895;DHT22;38759;53.396;6.722;2023-07-29T11:57:25;20.70;99.90
52895;DHT22;38759;53.396;6.722;2023-07-29T11:59:51;20.70;99.90
52895;DHT22;38759;53.396;6.722;2023-07-29T12:02:19;20.90;99.90
52895;DHT22;38759;53.396;6.722;2023-07-29T12:04:47;21.10;99.90
52895;DHT22;38759;53.396;6.722;2023-07-29T12:07:17;21.30;99.90
52895;DHT22;38759;53.396;6.722;2023-07-29T12:09:43;21.40;99.90
52895;DHT22;38759;53.396;6.722;2023-07-29T12:12:10;21.50;99.90
52895;DHT22;38759;53.396;6.722;2023-07-29T12:14:36;21.40;99.90
52895;DHT22;38759;53.396;6.722;2023-07-29T12:17:03;21.30;99.90
52895;DHT22;38759;53.396;6.722;2023-07-29T12:19:37;21.20;99.90
52895;DHT22;38759;53.396;6.722;2023-07-29T12:22:07;21.10;99.90
52895;DHT22;38759;53.396;6.722;2023-07-29T12:24:34;21.00;99.90
52895;DHT22;38759;53.396;6.722;2023-07-29T12:27:01;20.80;99.90
52895;DHT22;38759;53.396;6.722;2023-07-29T12:29:27;20.40;99.90
52895;DHT22;38759;53.396;6.722;2023-07-29T12:32:01;20.00;99.90
52895;DHT22;38759;53.396;6.722;2023-07-29T12:34:28;19.80;99.90
52895;DHT22;38759;53.396;6.722;2023-07-29T12:36:55;19.80;99.90
52895;DHT22;38759;53.396;6.722;2023-07-29T12:39:30;19.70;99.90
52895;DHT22;38759;53.396;6.722;2023-07-29T12:41:57;19.70;99.90
52895;DHT22;38759;53.396;6.722;2023-07-29T12:44:35;19.70;99.90
52895;DHT22;38759;53.396;6.722;2023-07-29T12:47:02;19.70;99.90
52895;DHT22;38759;53.396;6.722;2023-07-29T12:49:29;19.70;99.90
52895;DHT22;38759;53.396;6.722;2023-07-29T12:51:56;19.90;99.90
52895;DHT22;38759;53.396;6.722;2023-07-29T12:54:22;20.10;99.90
52895;DHT22;38759;53.396;6.722;2023-07-29T12:56:47;20.20;99.90
52895;DHT22;38759;53.396;6.722;2023-07-29T12:59:13;20.30;99.90
52895;DHT22;38759;53.396;6.722;2023-07-29T13:01:39;20.20;99.90
52895;DHT22;38759;53.396;6.722;2023-07-29T13:04:04;20.20;99.90
52895;DHT22;38759;53.396;6.722;2023-07-29T13:06:30;20.20;99.90
52895;DHT22;38759;53.396;6.722;2023-07-29T13:08:56;20.20;99.90
52895;DHT22;38759;53.396;6.722;2023-07-29T13:11:22;20.10;99.90
52895;DHT22;38759;53.396;6.722;2023-07-29T13:13:47;20.10;99.90
52895;DHT22;38759;53.396;6.722;2023-07-29T13:16:13;20.10;99.90
52895;DHT22;38759;53.396;6.722;2023-07-29T13:18:39;20.10;99.90
52895;DHT22;38759;53.396;6.722;2023-07-29T13:21:05;20.10;99.90
52895;DHT22;38759;53.396;6.722;2023-07-29T13:23:30;20.10;99.90
52895;DHT22;38759;53.396;6.722;2023-07-29T13:25:57;20.10;99.90
52895;DHT22;38759;53.396;6.722;2023-07-29T13:28:23;20.10;99.90
52895;DHT22;38759;53.396;6.722;2023-07-29T13:30:49;20.10;99.90
52895;DHT22;38759;53.396;6.722;2023-07-29T13:33:15;20.20;99.90
52895;DHT22;38759;53.396;6.722;2023-07-29T13:35:41;20.30;99.90
52895;DHT22;38759;53.396;6.722;2023-07-29T13:38:06;20.60;99.90
52895;DHT22;38759;53.396;6.722;2023-07-29T13:40:32;20.80;99.90
52895;DHT22;38759;53.396;6.722;2023-07-29T13:42:58;20.90;99.90
52895;DHT22;38759;53.396;6.722;2023-07-29T13:45:24;21.00;99.90
52895;DHT22;38759;53.396;6.722;2023-07-29T13:47:50;21.00;99.90
52895;DHT22;38759;53.396;6.722;2023-07-29T13:50:19;21.00;99.90
52895;DHT22;38759;53.396;6.722;2023-07-29T13:52:45;21.00;99.90
52895;DHT22;38759;53.396;6.722;2023-07-29T13:55:10;20.90;99.90
52895;DHT22;38759;53.396;6.722;2023-07-29T13:57:37;20.90;99.90
52895;DHT22;38759;53.396;6.722;2023-07-29T14:00:04;20.90;99.90
52895;DHT22;38759;53.396;6.722;2023-07-29T14:02:30;21.00;99.90
52895;DHT22;38759;53.396;6.722;2023-07-29T14:04:57;21.20;99.90
52895;DHT22;38759;53.396;6.722;2023-07-29T14:07:22;21.50;99.90
52895;DHT22;38759;53.396;6.722;2023-07-29T14:09:48;21.60;99.90
52895;DHT22;38759;53.396;6.722;2023-07-29T14:12:14;21.80;99.90
52895;DHT22;38759;53.396;6.722;2023-07-29T14:14:41;21.80;99.90
52895;DHT22;38759;53.396;6.722;2023-07-29T14:17:07;21.90;99.90
52895;DHT22;38759;53.396;6.722;2023-07-29T14:19:34;22.00;99.90
52895;DHT22;38759;53.396;6.722;2023-07-29T14:22:00;22.10;99.90
52895;DHT22;38759;53.396;6.722;2023-07-29T14:24:26;22.00;99.90
52895;DHT22;38759;53.396;6.722;2023-07-29T14:26:51;22.00;99.90
52895;DHT22;38759;53.396;6.722;2023-07-29T14:29:17;22.10;99.90
52895;DHT22;38759;53.396;6.722;2023-07-29T14:31:42;22.20;99.90
52895;DHT22;38759;53.396;6.722;2023-07-29T14:34:09;22.40;99.90
52895;DHT22;38759;53.396;6.722;2023-07-29T14:36:35;22.40;99.90
52895;DHT22;38759;53.396;6.722;2023-07-29T14:39:00;22.60;99.90
52895;DHT22;38759;53.396;6.722;2023-07-29T14:41:26;22.40;99.90
52895;DHT22;38759;53.396;6.722;2023-07-29T14:43:52;22.40;99.90
52895;DHT22;38759;53.396;6.722;2023-07-29T14:46:17;22.40;99.90
52895;DHT22;38759;53.396;6.722;2023-07-29T14:48:43;22.40;99.90
52895;DHT22;38759;53.396;6.722;2023-07-29T14:51:09;22.30;99.90
52895;DHT22;38759;53.396;6.722;2023-07-29T14:53:34;22.30;99.90
52895;DHT22;38759;53.396;6.722;2023-07-29T14:56:00;22.20;99.90
52895;DHT22;38759;53.396;6.722;2023-07-29T14:58:26;22.20;99.90
52895;DHT22;38759;53.396;6.722;2023-07-29T15:00:52;22.10;99.90
52895;DHT22;38759;53.396;6.722;2023-07-29T15:03:17;22.00;99.90
52895;DHT22;38759;53.396;6.722;2023-07-29T15:05:43;21.90;99.90
52895;DHT22;38759;53.396;6.722;2023-07-29T15:08:10;21.90;99.90
52895;DHT22;38759;53.396;6.722;2023-07-29T15:10:36;22.10;99.90
52895;DHT22;38759;53.396;6.722;2023-07-29T15:13:02;22.20;99.90
52895;DHT22;38759;53.396;6.722;2023-07-29T15:15:28;22.30;99.90
52895;DHT22;38759;53.396;6.722;2023-07-29T15:17:54;22.30;99.90
52895;DHT22;38759;53.396;6.722;2023-07-29T15:20:19;22.20;99.90
52895;DHT22;38759;53.396;6.722;2023-07-29T15:22:45;22.20;99.90
52895;DHT22;38759;53.396;6.722;2023-07-29T15:25:10;22.30;99.90
52895;DHT22;38759;53.396;6.722;2023-07-29T15:27:37;22.40;99.90
52895;DHT22;38759;53.396;6.722;2023-07-29T15:30:03;22.40;99.90
52895;DHT22;38759;53.396;6.722;2023-07-29T15:32:29;22.20;99.90
52895;DHT22;38759;53.396;6.722;2023-07-29T15:34:54;22.20;99.90
52895;DHT22;38759;53.396;6.722;2023-07-29T15:37:20;22.10;99.90
52895;DHT22;38759;53.396;6.722;2023-07-29T15:39:46;22.20;99.90
52895;DHT22;38759;53.396;6.722;2023-07-29T15:42:12;22.20;99.90
52895;DHT22;38759;53.396;6.722;2023-07-29T15:44:37;22.10;99.90
52895;DHT22;38759;53.396;6.722;2023-07-29T15:47:03;22.20;99.90